METAR Data
IDs: Format: Raw Decoded Include TAF

Data at: 2112 UTC 31 Jan 2023

METAR for:LFQA (Reims/Prunay Aprt, GE, FR)
Text:LFQA 312100Z AUTO 25011KT 9999 OVC045 07/05 Q1026
Temperature: 7.0°C ( 45°F)
Dewpoint: 5.0°C ( 41°F) [RH = 87%]
Pressure (altimeter):30.30 inches Hg (1026.0 mb)
Winds:from the WSW (250 degrees) at 13 MPH (11 knots; 5.7 m/s)
Visibility:6 or more sm (10+ km)
Ceiling:4500 feet AGL
Clouds: overcast cloud deck at 4500 feet AGL

TAF for:LFQA (Reims/Prunay Aprt, GE, FR)
Text:No data found